Time;durP1;ratioP1;P1;durP2;ratioP2;P2;SDS_P1;SDS_P2;PMS_P1;PMS_P2;Temp;Humidity;BMP_temperature;BMP_pressure;BME280_temperature;BME280_humidity;BME280_pressure;Samples;Min_cycle;Max_cycle;Signal;HPM_P1;HPM_P2
2022/12/01 06:16:41;;;;;;;64.15;19.50;;;;;;;-8.22;51.75;102241.09;6240654;23;20024;-90
2022/12/01 07:08:50;;;;;;;54.42;19.15;;;;;;;-6.83;51.34;102292.94;6233543;23;20024;-89
2022/12/01 08:34:30;;;;;;;74.40;27.00;;;;;;;-6.74;50.76;102239.81;6174760;23;20033;-87
2022/12/01 09:46:10;;;;;;;75.72;29.38;;;;;;;-5.01;50.93;102288.72;6239473;23;20035;-87
2022/12/01 10:26:08;;;;;;;78.80;27.13;;;;;;;-4.48;51.60;102282.16;6120508;23;20014;-89
2022/12/01 13:07:45;;;;;;;109.60;38.30;;;;;;;-4.88;52.94;102243.09;6230858;23;20024;-89
2022/12/01 13:10:38;;;;;;;101.55;36.53;;;;;;;-4.98;53.20;102220.91;6171493;23;20305;-88
2022/12/01 13:13:24;;;;;;;100.13;37.30;;;;;;;-5.10;52.77;102217.53;6143417;23;20012;-86
2022/12/01 13:15:53;;;;;;;98.32;35.88;;;;;;;-5.05;52.83;102227.78;6143824;23;20020;-88
2022/12/01 13:18:48;;;;;;;92.82;36.55;;;;;;;-4.79;53.03;102265.44;6171985;23;20020;-88
2022/12/01 13:21:36;;;;;;;103.97;38.75;;;;;;;-4.63;52.87;102272.91;6170742;23;20040;-90
2022/12/01 13:24:03;;;;;;;109.97;38.05;;;;;;;-4.86;52.88;102256.31;6170198;23;20020;-88
2022/12/01 13:26:30;;;;;;;117.47;40.58;;;;;;;-4.90;52.98;102231.72;6222590;23;20454;-90
2022/12/01 13:28:59;;;;;;;103.53;37.88;;;;;;;-5.08;52.90;102228.91;6150027;23;20017;-90
2022/12/01 13:31:40;;;;;;;101.03;37.70;;;;;;;-4.70;52.94;102267.28;6152066;23;20017;-93
2022/12/01 13:34:06;;;;;;;98.82;39.65;;;;;;;-5.23;53.33;102216.97;6210007;23;20047;-91
2022/12/01 13:36:34;;;;;;;109.10;39.30;;;;;;;-5.36;53.37;102198.56;6176561;23;20146;-93
2022/12/01 13:39:38;;;;;;;99.20;36.35;;;;;;;-5.76;53.38;102143.47;6203022;23;20104;-93
2022/12/01 13:42:21;;;;;;;115.72;37.20;;;;;;;-5.06;53.69;102260.78;6175295;23;20467;-93
2022/12/01 13:45:10;;;;;;;100.35;36.75;;;;;;;-5.14;53.89;102269.44;6187806;23;20020;-93
2022/12/01 13:47:58;;;;;;;104.20;35.78;;;;;;;-5.24;54.29;102268.59;6144788;23;20013;-93
2022/12/01 13:50:59;;;;;;;110.07;34.95;;;;;;;-5.15;54.13;102273.09;6126728;23;20021;-94
2022/12/01 13:53:34;;;;;;;89.90;31.70;;;;;;;-5.67;54.02;102187.09;6103525;23;20014;-92
2022/12/01 13:56:16;;;;;;;88.18;31.00;;;;;;;-5.18;53.85;102267.22;6098551;23;20025;-88
2022/12/01 14:00:03;;;;;;;104.57;33.35;;;;;;;-5.28;53.86;102269.84;6176697;23;20014;-92
2022/12/01 14:02:43;;;;;;;85.07;29.42;;;;;;;-5.81;54.22;102217.63;6154829;23;20076;-93
2022/12/01 14:05:39;;;;;;;81.45;30.23;;;;;;;-5.66;54.57;102258.09;6107527;23;20068;-88
2022/12/01 14:08:24;;;;;;;86.03;29.70;;;;;;;-6.00;54.87;102228.22;6115072;23;20017;-88
2022/12/01 14:11:23;;;;;;;90.57;29.80;;;;;;;-5.55;54.72;102249.16;6162086;23;20411;-85
2022/12/01 14:13:54;;;;;;;82.10;27.77;;;;;;;-5.67;54.80;102264.38;6160922;23;20108;-85
2022/12/01 14:16:22;;;;;;;72.82;28.00;;;;;;;-5.88;54.79;102221.81;6159321;23;20056;-86
2022/12/01 14:18:59;;;;;;;82.07;27.73;;;;;;;-5.64;54.42;102256.13;6135384;23;20025;-86
2022/12/01 14:21:50;;;;;;;80.43;27.58;;;;;;;-5.69;54.62;102235.22;6098162;23;20379;-87
2022/12/01 14:24:22;;;;;;;72.85;29.83;;;;;;;-5.81;54.97;102238.09;6155929;23;20029;-86
2022/12/01 14:26:51;;;;;;;72.82;28.05;;;;;;;-5.69;54.75;102231.72;6150155;23;20041;-88
2022/12/01 14:29:41;;;;;;;84.00;29.45;;;;;;;-6.20;55.26;102195.34;6171096;23;20035;-84
2022/12/01 14:32:08;;;;;;;68.72;28.25;;;;;;;-5.70;54.84;102259.31;6149632;23;20021;-86
2022/12/01 14:34:38;;;;;;;83.65;29.23;;;;;;;-5.59;54.37;102253.91;6149649;23;20024;-87
2022/12/01 14:37:17;;;;;;;84.25;30.15;;;;;;;-5.48;53.74;102245.78;6146188;23;20014;-87
2022/12/01 14:39:48;;;;;;;90.15;30.90;;;;;;;-5.87;53.79;102186.19;6147132;23;20021;-86
2022/12/01 14:45:31;;;;;;;89.30;34.05;;;;;;;-6.09;54.10;102173.09;6131519;23;20474;-86
2022/12/01 14:48:04;;;;;;;87.30;33.85;;;;;;;-5.69;53.78;102219.22;6136738;23;20076;-85
2022/12/01 14:50:50;;;;;;;96.00;33.45;;;;;;;-5.54;53.50;102232.16;6134959;23;20332;-87
2022/12/01 14:53:22;;;;;;;88.78;32.22;;;;;;;-5.62;53.65;102242.69;6135710;23;20021;-87
2022/12/01 14:55:57;;;;;;;84.75;32.95;;;;;;;-6.10;54.07;102182.91;6109865;23;20024;-87
2022/12/01 14:58:32;;;;;;;86.55;31.52;;;;;;;-5.91;54.69;102238.06;6152889;23;20007;-87
2022/12/01 15:01:11;;;;;;;87.97;33.42;;;;;;;-5.84;54.82;102254.34;6105923;23;20043;-86
2022/12/01 15:03:42;;;;;;;81.43;32.92;;;;;;;-5.93;54.22;102205.41;6183418;23;20009;-86
2022/12/01 15:06:14;;;;;;;78.78;31.75;;;;;;;-5.65;54.14;102257.09;6155525;23;20025;-89
2022/12/01 15:08:40;;;;;;;95.53;34.90;;;;;;;-5.63;54.08;102243.63;6113240;23;20009;-87
2022/12/01 15:11:29;;;;;;;103.57;35.70;;;;;;;-5.53;53.49;102248.03;6139511;23;20024;-89
2022/12/01 15:13:56;;;;;;;94.35;34.65;;;;;;;-5.92;53.50;102191.94;6061053;23;20018;-89
2022/12/01 15:16:42;;;;;;;92.82;35.08;;;;;;;-6.16;54.07;102183.44;6079940;23;20046;-88
2022/12/01 15:19:26;;;;;;;85.45;33.97;;;;;;;-5.88;54.14;102247.59;6079935;23;20620;-90
2022/12/01 15:21:53;;;;;;;90.03;34.63;;;;;;;-6.19;54.09;102194.34;6102477;23;20018;-90
2022/12/01 15:24:26;;;;;;;110.05;37.05;;;;;;;-5.98;53.83;102208.47;6106086;23;20506;-88
2022/12/01 15:26:55;;;;;;;103.30;37.42;;;;;;;-5.73;53.66;102248.91;6057862;23;20109;-89
2022/12/01 15:29:30;;;;;;;101.70;37.97;;;;;;;-6.01;53.82;102184.78;6080283;23;20073;-85
2022/12/01 15:32:00;;;;;;;107.03;37.30;;;;;;;-6.68;54.28;102156.81;6087330;23;20057;-87
2022/12/01 15:34:43;;;;;;;104.68;38.92;;;;;;;-6.18;54.50;102238.66;6079678;23;20030;-87
2022/12/01 15:37:13;;;;;;;107.50;37.63;;;;;;;-5.92;54.54;102242.53;6077174;23;20019;-86
2022/12/01 15:39:47;;;;;;;105.85;37.53;;;;;;;-5.97;53.99;102214.66;6078000;23;20015;-87
2022/12/01 15:42:28;;;;;;;101.78;38.15;;;;;;;-5.92;53.98;102231.88;6051507;23;20074;-87
2022/12/01 15:45:36;;;;;;;113.97;40.55;;;;;;;-5.99;54.32;102249.41;6102547;23;20397;-85
2022/12/01 15:48:17;;;;;;;114.13;41.22;;;;;;;-6.07;54.20;102253.72;6079566;23;20457;-87
2022/12/01 15:50:59;;;;;;;107.32;39.30;;;;;;;-6.14;54.29;102248.06;6099322;23;20022;-85
2022/12/01 15:53:49;;;;;;;100.47;35.58;;;;;;;-6.43;54.52;102206.13;6076306;23;20022;-85
2022/12/01 15:56:28;;;;;;;99.90;37.92;;;;;;;-6.22;54.86;102245.22;6104024;23;20018;-86
2022/12/01 15:59:22;;;;;;;95.53;36.70;;;;;;;-6.32;54.97;102238.97;6025812;23;20026;-86
2022/12/01 16:02:32;;;;;;;96.30;34.80;;;;;;;-6.44;55.13;102247.03;6058981;23;20067;-87
2022/12/01 16:05:28;;;;;;;100.05;35.95;;;;;;;-6.87;55.21;102165.50;6055386;23;20042;-88
2022/12/01 16:08:35;;;;;;;97.72;33.72;;;;;;;-6.57;55.31;102246.38;5947831;24;20025;-87
2022/12/01 16:11:30;;;;;;;106.38;34.90;;;;;;;-6.97;55.55;102190.34;5950845;24;20032;-87
2022/12/01 16:14:31;;;;;;;103.22;36.17;;;;;;;-7.47;55.84;102108.50;6081126;23;20038;-87
2022/12/01 16:17:06;;;;;;;91.57;33.53;;;;;;;-7.29;55.77;102123.88;6068988;23;20078;-88
2022/12/01 16:26:30;;;;;;;;;;;;;;;-6.78;56.05;102229.56;6147120;23;20028;-88
2022/12/01 16:29:55;;;;;;;83.07;31.27;;;;;;;-7.76;56.88;102141.91;6062720;23;19917;-89
2022/12/01 16:33:47;;;;;;;103.30;35.15;;;;;;;-7.28;57.18;102192.00;6048764;23;20027;-89
2022/12/01 16:36:14;;;;;;;114.38;36.67;;;;;;;-7.72;57.28;102144.19;6011662;23;20063;-86
2022/12/01 16:38:45;;;;;;;104.85;37.80;;;;;;;-7.73;57.40;102115.09;6027724;23;20038;-91
2022/12/01 16:41:33;;;;;;;106.40;37.53;;;;;;;-6.97;57.73;102239.06;5997106;23;20137;-90
2022/12/01 16:44:19;;;;;;;99.50;34.70;;;;;;;-7.34;57.80;102172.13;5995849;23;20019;-90
2022/12/01 16:50:36;;;;;;;90.32;35.88;;;;;;;-7.52;57.60;102153.19;6069132;23;20021;-91
2022/12/01 16:53:29;;;;;;;106.28;37.38;;;;;;;-6.76;57.38;102247.06;6150035;23;20005;-89
2022/12/01 16:56:22;;;;;;;96.90;36.58;;;;;;;-6.66;57.11;102241.81;6131043;23;20006;-88
2022/12/01 16:58:52;;;;;;;96.43;35.88;;;;;;;-7.15;56.99;102166.97;6183461;23;20029;-92
2022/12/01 17:01:23;;;;;;;104.35;38.00;;;;;;;-6.88;57.14;102210.88;6106091;23;19997;-88
2022/12/01 17:03:52;;;;;;;112.93;38.20;;;;;;;-7.02;56.98;102188.06;6132887;23;20005;-91
2022/12/01 17:06:31;;;;;;;98.82;36.90;;;;;;;-7.34;57.11;102140.22;6157358;23;20010;-86
2022/12/01 17:09:04;;;;;;;86.07;32.33;;;;;;;-7.35;57.18;102178.38;6070582;23;20003;-92
2022/12/01 17:11:35;;;;;;;109.97;38.85;;;;;;;-7.57;57.92;102137.63;6092699;23;20085;-89
2022/12/01 17:14:03;;;;;;;112.63;38.58;;;;;;;-6.76;57.18;102227.59;6093684;23;20003;-87
2022/12/01 17:16:33;;;;;;;101.10;36.97;;;;;;;-6.92;56.97;102180.16;6073582;23;20026;-88
2022/12/01 17:19:05;;;;;;;103.07;33.92;;;;;;;-7.05;56.61;102167.06;6096777;23;20041;-90
2022/12/01 17:22:17;;;;;;;95.32;34.65;;;;;;;-7.46;56.55;102093.41;5984798;23;20021;-91
2022/12/01 17:25:18;;;;;;;105.90;36.17;;;;;;;-6.91;57.18;102217.28;5968762;24;20016;-87
2022/12/01 17:28:05;;;;;;;103.05;34.53;;;;;;;-7.17;57.07;102178.72;5899628;24;20009;-88
2022/12/01 17:30:37;;;;;;;101.65;34.20;;;;;;;-7.20;56.97;102166.50;5939619;24;20025;-88
2022/12/01 17:33:27;;;;;;;91.67;35.37;;;;;;;-7.45;57.18;102172.13;5944882;24;20033;-87
2022/12/01 17:36:10;;;;;;;92.25;32.80;;;;;;;-7.20;56.84;102176.31;5939081;24;20006;-90
2022/12/01 17:38:59;;;;;;;111.75;35.67;;;;;;;-6.90;56.75;102208.31;5936456;24;20040;-89
2022/12/01 17:41:54;;;;;;;101.35;34.50;;;;;;;-6.82;56.71;102228.09;5910871;24;20112;-90
2022/12/01 17:44:46;;;;;;;106.25;34.30;;;;;;;-7.01;56.62;102184.44;5912348;24;20033;-85
2022/12/01 17:47:40;;;;;;;99.03;32.67;;;;;;;-6.82;56.69;102228.09;5935498;24;20020;-87
2022/12/01 17:57:21;;;;;;;87.20;30.90;;;;;;;-6.59;56.02;102218.19;6170721;23;20029;-88
2022/12/01 17:59:49;;;;;;;91.18;34.03;;;;;;;-6.73;55.93;102200.75;6136132;23;20153;-87
2022/12/01 18:02:42;;;;;;;100.05;34.22;;;;;;;-6.56;56.17;102220.59;6134996;23;20100;-89
2022/12/01 18:05:11;;;;;;;87.37;31.77;;;;;;;-6.69;55.83;102205.69;6143491;23;20021;-87
2022/12/01 18:08:35;;;;;;;90.90;33.30;;;;;;;-6.60;56.07;102225.34;6165934;23;20253;-85
2022/12/01 18:11:23;;;;;;;92.65;31.00;;;;;;;-6.83;55.73;102155.44;6158436;23;20028;-86
2022/12/01 18:13:54;;;;;;;99.72;33.20;;;;;;;-6.81;55.81;102193.41;6152500;23;20017;-86
2022/12/01 18:16:44;;;;;;;97.82;33.13;;;;;;;-6.53;55.55;102231.84;6148795;23;20041;-90
2022/12/01 18:19:31;;;;;;;90.03;30.73;;;;;;;-6.41;55.13;102228.16;6168014;23;20021;-85
2022/12/01 18:22:02;;;;;;;92.00;33.03;;;;;;;-7.05;55.10;102108.56;6161646;23;20029;-86
2022/12/01 18:24:30;;;;;;;94.93;34.10;;;;;;;-6.38;55.18;102216.41;6134792;23;20029;-85
2022/12/01 18:26:56;;;;;;;100.70;32.65;;;;;;;-6.92;55.06;102113.66;6131332;23;20077;-88
2022/12/01 18:29:27;;;;;;;88.88;32.55;;;;;;;-6.44;55.30;102203.63;6130247;23;20352;-88
2022/12/01 18:32:21;;;;;;;114.18;33.72;;;;;;;-6.44;55.07;102201.78;6111643;23;20025;-89
2022/12/01 18:34:52;;;;;;;82.70;30.30;;;;;;;-6.79;54.80;102172.00;6110756;23;20076;-86
2022/12/01 18:37:20;;;;;;;106.30;33.95;;;;;;;-6.60;54.90;102182.78;6089753;23;20053;-89
2022/12/01 18:40:23;;;;;;;88.80;30.08;;;;;;;-6.20;54.66;102221.97;6112828;23;20021;-89
2022/12/01 18:42:52;;;;;;;100.95;31.05;;;;;;;-6.55;54.30;102169.94;6118148;23;20017;-86
2022/12/01 18:45:19;;;;;;;93.57;31.27;;;;;;;-6.54;54.60;102168.09;6129730;23;20025;-85
2022/12/01 18:51:24;;;;;;;86.15;30.33;;;;;;;-6.89;54.05;102116.06;6123841;23;19908;-89
2022/12/01 18:53:55;;;;;;;94.30;32.42;;;;;;;-6.34;54.16;102207.16;6026126;23;20019;-87
2022/12/01 18:56:22;;;;;;;97.13;30.98;;;;;;;-6.34;54.22;102183.22;6100214;23;20005;-88
2022/12/01 18:59:17;;;;;;;90.82;32.28;;;;;;;-6.18;54.22;102223.53;6071231;23;20024;-88
2022/12/01 19:01:54;;;;;;;93.50;30.63;;;;;;;-6.59;54.14;102175.63;6089170;23;20018;-88
2022/12/01 19:04:23;;;;;;;89.72;30.77;;;;;;;-6.58;54.39;102162.22;6114750;23;20022;-90
2022/12/01 19:06:51;;;;;;;88.00;30.60;;;;;;;-6.60;54.54;102165.97;6069488;23;20081;-88
2022/12/01 19:09:17;;;;;;;86.23;30.73;;;;;;;-6.65;54.66;102153.06;6090197;23;20024;-90
2022/12/01 19:11:59;;;;;;;90.53;31.77;;;;;;;-6.25;55.38;102226.84;6113816;23;20081;-90
2022/12/01 19:14:27;;;;;;;94.00;32.67;;;;;;;-6.62;55.26;102169.63;6086129;23;20024;-89
2022/12/01 19:16:56;;;;;;;102.40;32.50;;;;;;;-6.49;55.45;102184.50;6134078;23;20029;-87
2022/12/01 19:19:25;;;;;;;98.65;35.63;;;;;;;-6.73;55.56;102190.09;6085774;23;20018;-86
2022/12/01 19:25:50;;;;;;;96.30;30.83;;;;;;;-6.93;56.28;102184.63;6109871;23;20014;-90
2022/12/01 19:28:18;;;;;;;87.63;31.10;;;;;;;-7.41;56.49;102113.31;6137276;23;20047;-90
2022/12/01 19:30:51;;;;;;;88.55;30.98;;;;;;;-6.99;56.92;102211.72;6045651;23;20021;-88
2022/12/01 19:33:19;;;;;;;89.15;30.38;;;;;;;-7.13;57.55;102201.41;6149505;23;20487;-88
2022/12/01 19:35:52;;;;;;;102.53;31.40;;;;;;;-6.88;57.78;102240.97;6171226;23;20024;-89
2022/12/01 19:38:20;;;;;;;100.07;32.45;;;;;;;-7.12;57.50;102188.00;6038668;23;20018;-89
2022/12/01 19:41:02;;;;;;;90.27;32.20;;;;;;;-7.29;56.89;102139.84;6062391;23;20054;-90
2022/12/01 19:44:18;;;;;;;86.43;30.92;;;;;;;-6.59;56.36;102236.81;6062731;23;20053;-88
2022/12/01 20:04:31;;;;;;;106.40;34.97;;;;;;;-6.52;54.38;102232.66;6126203;23;20070;-86
2022/12/01 20:06:58;;;;;;;93.15;36.22;;;;;;;-6.59;55.10;102242.16;6175538;23;20020;-89
2022/12/01 20:09:36;;;;;;;90.90;32.13;;;;;;;-7.12;55.80;102185.34;6226413;23;20028;-89
2022/12/01 20:12:30;;;;;;;104.53;34.00;;;;;;;-6.91;56.74;102233.22;6236813;23;20040;-89
2022/12/01 20:14:59;;;;;;;95.80;31.33;;;;;;;-7.63;57.35;102148.75;6231106;23;20020;-90
2022/12/01 20:17:54;;;;;;;86.85;28.13;;;;;;;-7.31;57.89;102240.97;6227395;23;20011;-86
2022/12/01 20:20:29;;;;;;;83.97;27.35;;;;;;;-7.93;58.58;102160.03;6223865;23;20012;-88
2022/12/01 20:22:56;;;;;;;95.07;29.13;;;;;;;-7.61;58.94;102210.59;6151088;23;20024;-87
2022/12/01 20:25:23;;;;;;;83.53;28.83;;;;;;;-7.88;58.62;102170.28;6146282;23;20029;-87
2022/12/01 20:27:49;;;;;;;90.43;29.42;;;;;;;-7.25;58.24;102234.28;6107447;23;20491;-88
2022/12/01 20:30:16;;;;;;;90.55;28.60;;;;;;;-7.38;57.12;102198.09;6157719;23;20017;-90
2022/12/01 20:32:55;;;;;;;84.35;27.83;;;;;;;-7.10;57.14;102247.19;6109178;23;20049;-90
2022/12/01 20:35:21;;;;;;;;;;;;;;;-7.30;57.85;102260.41;6137993;23;20028;-87
2022/12/01 20:37:47;;;;;;;81.37;28.60;;;;;;;-7.64;57.98;102220.63;6086932;23;19912;-87
2022/12/01 20:40:20;;;;;;;85.82;29.80;;;;;;;-7.81;57.21;102160.88;6133916;23;20022;-88
2022/12/01 20:43:11;;;;;;;90.88;28.67;;;;;;;-7.05;56.66;102262.78;6161605;23;20017;-87
2022/12/01 20:45:45;;;;;;;87.45;29.45;;;;;;;-7.34;55.66;102196.88;6162086;23;20021;-89
2022/12/01 20:48:16;;;;;;;83.90;29.00;;;;;;;-7.21;56.00;102215.34;6157724;23;20067;-90
2022/12/01 20:50:42;;;;;;;86.07;29.05;;;;;;;-7.24;55.67;102202.28;6134874;23;20021;-86
2022/12/01 20:53:11;;;;;;;86.75;30.63;;;;;;;-7.33;55.71;102198.56;6160598;23;20017;-89
2022/12/01 20:55:38;;;;;;;82.13;27.92;;;;;;;-7.22;55.24;102196.84;6135958;23;20072;-88
2022/12/01 20:58:09;;;;;;;83.47;26.98;;;;;;;-6.67;54.94;102272.06;6137166;23;20018;-89
2022/12/01 21:00:43;;;;;;;81.15;27.45;;;;;;;-6.91;53.77;102238.56;6111435;23;20076;-89
2022/12/01 21:03:10;;;;;;;88.20;29.73;;;;;;;-6.70;54.18;102282.97;6140016;23;20385;-88
2022/12/01 21:05:44;;;;;;;86.00;30.75;;;;;;;-7.14;54.09;102195.25;6163130;23;20028;-88
2022/12/01 21:08:12;;;;;;;95.88;30.63;;;;;;;-6.96;54.55;102230.09;6134038;23;20100;-88
2022/12/01 21:10:44;;;;;;;90.63;30.10;;;;;;;-7.16;54.66;102199.84;6135051;23;20017;-87
2022/12/01 21:16:05;;;;;;;92.57;28.77;;;;;;;-7.12;54.48;102197.75;6132737;23;20021;-89
2022/12/01 21:19:19;;;;;;;89.43;29.25;;;;;;;-6.78;54.89;102249.03;6108357;23;20364;-90
2022/12/01 21:21:47;;;;;;;105.00;29.65;;;;;;;-7.08;55.49;102244.41;6075491;23;20017;-89
2022/12/01 21:24:20;;;;;;;77.63;28.58;;;;;;;-7.83;56.56;102158.34;6132343;23;20021;-90
2022/12/01 21:26:51;;;;;;;80.07;27.80;;;;;;;-7.42;57.90;102240.97;6109601;23;20337;-87
2022/12/01 21:29:37;;;;;;;83.18;28.85;;;;;;;-7.72;57.95;102223.88;6134035;23;20024;-88
2022/12/01 21:32:16;;;;;;;79.88;28.73;;;;;;;-7.68;57.87;102228.00;6138284;23;20017;-87
2022/12/01 21:34:47;;;;;;;87.25;30.75;;;;;;;-7.91;57.95;102194.41;6107023;23;20030;-88
2022/12/01 21:37:26;;;;;;;87.13;30.45;;;;;;;-7.74;57.79;102199.25;6135097;23;20100;-87
2022/12/01 21:39:55;;;;;;;83.45;28.70;;;;;;;-7.74;57.40;102212.53;6141154;23;20028;-87
2022/12/01 21:42:26;;;;;;;88.47;30.42;;;;;;;-7.74;57.22;102199.25;6133582;23;20021;-88
2022/12/01 21:44:54;;;;;;;96.25;31.88;;;;;;;-7.53;56.63;102201.16;6113782;23;20018;-88
2022/12/01 21:47:28;;;;;;;88.85;29.23;;;;;;;-7.28;56.08;102235.41;6163189;23;20013;-88
2022/12/01 21:50:01;;;;;;;89.07;30.30;;;;;;;-7.67;55.76;102151.81;6134487;23;20021;-89
2022/12/01 21:52:38;;;;;;;82.57;29.45;;;;;;;-7.05;55.34;102248.63;6133902;23;20396;-87
2022/12/01 21:55:31;;;;;;;79.95;28.77;;;;;;;-7.05;55.58;102235.31;6087790;23;20065;-90
2022/12/01 21:57:58;;;;;;;85.28;29.42;;;;;;;-7.34;55.18;102183.59;6170419;23;20021;-88
2022/12/01 22:00:35;;;;;;;79.38;28.55;;;;;;;-7.30;55.35;102193.97;6145163;23;20383;-90
2022/12/01 22:03:07;;;;;;;87.82;29.35;;;;;;;-6.88;54.44;102246.28;6089717;23;20029;-90
2022/12/01 22:05:43;;;;;;;86.68;30.33;;;;;;;-7.18;53.78;102203.63;6109829;23;20017;-87
2022/12/01 22:08:12;;;;;;;80.28;29.35;;;;;;;-6.82;53.66;102241.41;6084773;23;20376;-89
2022/12/01 22:11:01;;;;;;;93.75;31.13;;;;;;;-6.79;53.85;102249.13;6084248;23;20360;-88
2022/12/01 22:14:07;;;;;;;90.72;29.60;;;;;;;-7.16;53.60;102188.34;6084825;23;20104;-88
2022/12/01 22:16:56;;;;;;;88.22;29.58;;;;;;;-6.73;53.59;102254.78;6143779;23;20108;-90
2022/12/01 22:19:38;;;;;;;92.53;31.65;;;;;;;-7.17;53.63;102184.03;6155613;23;20009;-90
2022/12/01 22:22:10;;;;;;;94.47;31.67;;;;;;;-6.70;53.36;102248.38;6142904;23;20028;-89
2022/12/01 22:24:42;;;;;;;87.88;30.80;;;;;;;-7.12;52.81;102184.47;6088645;23;20112;-87
2022/12/01 22:27:29;;;;;;;97.15;34.78;;;;;;;-6.70;53.58;102243.06;6135577;23;20013;-90
2022/12/01 22:30:18;;;;;;;;;;;;;;;-6.71;53.72;102238.72;6128046;23;20025;-88
2022/12/01 22:33:04;;;;;;;85.85;32.13;;;;;;;-7.07;54.89;102238.13;6142793;23;19923;-88
2022/12/01 22:35:42;;;;;;;98.73;32.50;;;;;;;-7.87;56.33;102167.53;6113658;23;20017;-89
2022/12/01 22:38:08;;;;;;;93.22;32.92;;;;;;;-7.68;57.45;102233.31;6158497;23;20018;-88
2022/12/01 22:40:50;;;;;;;92.13;31.98;;;;;;;-8.19;57.87;102164.75;6082473;23;20025;-88
2022/12/01 22:43:16;;;;;;;90.80;31.42;;;;;;;-7.71;58.01;102227.38;6130264;23;20028;-88
2022/12/01 22:45:45;;;;;;;97.22;33.47;;;;;;;-8.05;57.59;102169.81;6107919;23;20084;-89
2022/12/01 22:48:42;;;;;;;95.85;31.15;;;;;;;-7.71;57.82;102235.38;6137380;23;20360;-88
2022/12/01 22:51:23;;;;;;;89.22;30.30;;;;;;;-7.97;57.66;102216.16;6131258;23;20017;-88
2022/12/01 22:54:12;;;;;;;84.03;29.65;;;;;;;-8.05;57.73;102198.16;6087463;23;20013;-87
2022/12/01 22:56:47;;;;;;;90.65;29.40;;;;;;;-8.19;57.14;102177.19;6104969;23;20024;-89
2022/12/01 22:59:19;;;;;;;84.25;28.40;;;;;;;-8.05;56.63;102147.72;6108833;23;20032;-88
2022/12/01 23:01:52;;;;;;;85.10;30.42;;;;;;;-7.78;55.59;102173.91;6108237;23;20017;-89
2022/12/01 23:04:32;;;;;;;80.90;29.98;;;;;;;-7.68;55.25;102198.78;6131666;23;20017;-89
2022/12/01 23:07:19;;;;;;;94.68;29.25;;;;;;;-7.56;54.81;102213.72;6107609;23;20021;-88
2022/12/01 23:09:45;;;;;;;93.50;29.48;;;;;;;-7.71;54.78;102168.97;6082700;23;20051;-88
2022/12/01 23:12:11;;;;;;;77.32;28.42;;;;;;;-7.27;54.47;102245.06;6105931;23;20017;-89
2022/12/01 23:14:50;;;;;;;85.75;28.55;;;;;;;-7.39;53.93;102204.38;6086465;23;20009;-89
2022/12/01 23:17:27;;;;;;;82.25;27.35;;;;;;;-7.36;54.16;102228.03;6113349;23;20405;-89
2022/12/01 23:20:30;;;;;;;78.28;25.48;;;;;;;-7.63;55.01;102230.25;6135526;23;20399;-89
2022/12/01 23:23:33;;;;;;;81.00;25.50;;;;;;;-7.76;55.22;102222.44;6045223;23;20048;-89
2022/12/01 23:26:05;;;;;;;73.13;26.75;;;;;;;-7.66;55.23;102214.56;5990602;23;20076;-88
2022/12/01 23:28:31;;;;;;;78.82;25.27;;;;;;;-7.80;55.39;102239.56;5986436;23;20054;-89
2022/12/01 23:30:58;;;;;;;79.60;27.40;;;;;;;-7.67;55.82;102242.09;5985709;23;20643;-88
2022/12/01 23:33:27;;;;;;;;;;;;;;;-7.70;55.53;102242.34;5987385;23;20463;-88
2022/12/01 23:36:11;;;;;;;72.55;23.38;;;;;;;-7.93;55.10;102172.47;5987093;23;19929;-88
2022/12/01 23:38:42;;;;;;;68.28;24.33;;;;;;;-7.53;54.72;102230.38;6011034;23;20024;-88
2022/12/01 23:41:32;;;;;;;71.85;24.40;;;;;;;-7.51;55.25;102247.06;5985670;23;20030;-89
2022/12/01 23:44:03;;;;;;;73.80;25.08;;;;;;;-7.49;54.54;102216.72;5985345;23;20052;-88
2022/12/01 23:46:31;;;;;;;79.93;27.13;;;;;;;-7.59;54.12;102154.66;6009468;23;20019;-88
2022/12/01 23:49:03;;;;;;;75.22;27.83;;;;;;;-7.51;53.50;102162.03;6010490;23;20477;-88
2022/12/01 23:51:46;;;;;;;73.03;26.73;;;;;;;-7.37;53.38;102178.53;5986272;23;20024;-88
2022/12/01 23:54:19;;;;;;;86.10;26.00;;;;;;;-7.00;53.30;102227.81;6010939;23;20028;-89
2022/12/01 23:56:54;;;;;;;81.70;27.48;;;;;;;-7.46;53.29;102171.28;6062581;23;20088;-88
2022/12/01 23:59:21;;;;;;;73.82;24.77;;;;;;;-7.40;53.44;102181.44;6077207;23;20050;-88
